Terminal Aerodrome Forecast
Issued by NWS

Home | Current Version | Previous Version | Text Only | Print | Product List | Glossary On
Versions: 1 2 3 4 5 6 7 8 9 10 11 12 13 14 15 16 17 18 19 20 21 22
000
FTUS43 KIND 232332
TAFLAF
TAF
KLAF 232332Z 2400/2424 07005KT P6SM VCSH SCT025 BKN110
     FM240300 10006KT P6SM BKN030
     FM240500 14006KT P6SM BKN025
     FM240800 17009KT P6SM BKN030 WS020/20040KT
     FM241200 20013G26KT P6SM BKN025 WS020/21040KT
     FM241300 19013G27KT P6SM BKN025
     FM241500 19014G28KT P6SM OVC015
     FM241700 20015G28KT P6SM OVC020
      AMD LTD TO CLD VIS AND WIND 2402/2414=

USA.gov is the U.S. government's official web portal to all federal, state and local government web resources and services.